Hovedside
METAR-TAF:

METAR-TAF

Lufthavner :

Kangerlussuaq lufthavn

Kangerlussuaq, Grønland

breddegrad: 67-01N, lengdegrad: 050-42W, høyde over havet: 50 m

Gjeldene værobservasjon

Denne rapporten ble laget for 39 minutter siden, klokken 19:50 UTC
Vind 3 kt fra Øst-nordøst
Temperatur -6°C
Luftfuktighet 79%
Trykk 1002 hPa
Sikt 10 km eller mer

METAR: BGSF 181950Z AUTO 06003KT 9999NDV OVC190/// M06/M09 Q1002

Tid: 17:29 (20:29 UTC)

Varsel

Denne rapporten ble laget for 3 timer og 28 minutter siden, klokken 17:01 UTC
Varsel gyldig fra 18. klokken 18 UTC til 18. klokken 24 UTC
Vind 8 kt fra skiftende retning
Sikt 10 km eller mer
Brutte skyer i en høyde av 8000 ft
Midlertidig
fra 18. klokken 18 UTC til 18. klokken 24 UTC
Spredte skyer i en høyde av 9000 ft
Brutte skyer i en høyde av 15000 ft

TAF: BGSF 181701Z 1818/1824 VRB08KT 9999 BKN080 TEMPO 1818/1824 SCT090 BKN150

Værobservasjoner og værvarsel for over 4000 flyplasser (METAR- og TAF-rapporter).

Tilgjengelige stasjoner er representert av de røde og gule prikkene på kartet.

Hold musepekeren over prikken for å se navnet på stasjonen.

Klikk så for å se værobservasjoner og -varsler.

For å forandre kartet kan du klikke på den grønne knappen med svart kryss for å zoome inn, på den grønne knappen med strek for å zoome ut, eller på de grønne pilene for å se tilstøtende kart.


METAR-TAF: